Terminal Aerodrome Forecast
Issued by NWS

Home | Current Version | Previous Version | Graphics & Text | Print | Product List | Glossary On
Versions: 1 2 3 4 5 6 7 8 9 10 11 12 13 14 15 16 17 18 19
000
FTUS43 KLSX 261800 AAA
TAFUIN
TAF AMD
KUIN 261850Z 2619/2718 24008KT P6SM OVC035
      TEMPO 2619/2621 4SM TSRA OVC035CB
     FM262100 23012KT P6SM BKN040
      TEMPO 2621/2623 VRB20G30KT 4SM TSRA OVC035CB
     FM270000 21006KT P6SM BKN250
     FM270800 30010KT P6SM SCT040=

USA.gov is the U.S. government's official web portal to all federal, state and local government web resources and services.